Tiempo atmosférico en la estación meteorológica de Teruel, Teruel (900 m.)



Fecha
DESCASC
Temp. máxima en grados centígrados (hora)
DESCASC
Temp. mínima en grados centígrados (hora)
DESCASC
Temp. media en grados centígrados
DESCASC
Racha de viento máxima en m/sg (hora)
DESCASC
Velocidad máxima media en intervalos de 10 minutos(hora)
DESCASC
Precipitaciones diarias en mm
DESCASC
Precipitaciones de 00:00 a 06:00 en mm
DESCASC
Precipitaciones de 06:00 a 12:00 en mm
DESCASC
Precipitaciones de 12:00 a 18:00 en mm
DESCASC
Precipitaciones de 18:00 a 24:00 en mm
DESCASC
31-03-2020 10.8 (19:10) -0.4 (05:50) 5.2 7.5 (17:00) 3.61 (18:40) 6.4 4.8 1 0.4 0.2
29-03-2020 18.2 (17:10) -0.7 (-00:0) 8.8 7.5 (15:40) 3.33 (15:10) 0 0 0 0 0
28-03-2020 13.3 (16:20) -0.9 (-00:0) 6.2 3.89 (10:40) 2.22 (12:10) 0 0 0 0 0
27-03-2020 12.4 (16:00) -1.8 (-00:0) 5.3 8.89 (14:10) 4.17 (16:00) 0 0 0 0 0
26-03-2020 10.2 (16:50) 1.7 (00:00) 5.9 12.78 (12:50) 5.83 (13:50) 0 0 0 0 0
25-03-2020 12.5 (16:50) 3.3 (00:00) 7.9 8.06 (15:00) 3.89 (14:50) 3.4 1.6 1.6 0.2 0
24-03-2020 13.3 (14:50) 5 (00:00) 9.2 7.22 (15:30) 3.61 (12:20) 0 0 0 0 0
23-03-2020 14.7 (15:50) 6.7 (00:00) 10.7 8.61 (12:20) 3.61 (14:50) 1.4 0.4 0.8 0.2 0
22-03-2020 10.9 (16:50) 5.8 (05:50) 8.3 6.67 (18:30) 2.78 (00:40) 5 4.6 0.4 0 0
21-03-2020 11.5 (14:40) 2.4 (00:00) 7 5.83 (00:50) 3.61 (01:40) 0 0 0 0 0
20-03-2020 14.8 (15:20) 5.8 (00:00) 10.3 8.89 (15:20) 3.33 (10:20) 0 0 0 0 0
19-03-2020 17.6 (15:20) 4 (00:00) 10.8 6.67 (13:10) 3.33 (14:20) 0 0 0 0 0
18-03-2020 14.6 (14:30) 5.6 (00:00) 10.1 6.67 (05:30) 3.33 (05:30) 0 0 0 0 0
17-03-2020 11.3 (18:00) 3.4 (00:00) 7.4 5.28 (21:20) 2.22 (19:50) 31.4 11.2 14.8 5.4 0
16-03-2020 9.3 (09:10) 1.1 (00:00) 5.2 14.72 (09:40) 7.78 (09:40) 29.6 3.6 12.4 10.8 2.8
15-03-2020 19.2 (15:30) 5.1 (00:00) 12.2 9.72 (22:50) 5.28 (16:20) 16.4 0 0 0 16.4
14-03-2020 21.7 (15:50) 2.1 (00:00) 11.9 6.39 (16:30) 3.33 (16:30) 0 0 0 0 0
13-03-2020 21.4 (15:20) 5.5 (06:50) 13.4 7.78 (14:00) 3.89 (18:10) 0 0 0 0 0
12-03-2020 28 (15:40) 3.9 (00:00) 16 7.78 (15:10) 4.17 (15:10) 0 0 0 0 0
11-03-2020 26.6 (16:40) 2.2 (00:00) 14.4 6.11 (15:50) 3.06 (15:10) 0 0 0 0 0
10-03-2020 -- (--) -- (--) -- -- (--) -- (--) 0 0 0 0 0
09-03-2020 14.6 (16:10) 3.4 (00:00) 9 12.5 (16:10) 6.39 (16:20) 0 0 0 0 0
08-03-2020 19.8 (16:50) -2.9 (-00:0) 8.4 7.5 (17:00) 3.33 (17:00) 0 0 0 0 0
07-03-2020 12.9 (16:20) 2.3 (00:00) 7.6 14.17 (14:50) 6.67 (13:50) 0 0 0 0 0
06-03-2020 10.4 (13:00) 2.8 (00:00) 6.6 16.39 (17:20) 8.06 (17:20) 0.6 0 0 0.6 0
05-03-2020 15 (11:40) 2 (00:00) 8.5 13.33 (13:50) 7.22 (12:30) 0 0 0 0 0
04-03-2020 18.5 (16:50) 3.3 (04:30) 10.9 8.61 (14:10) 4.44 (12:40) 0 0 0 0 0

Gráficas

Temp. máximas Temp. mínimas Temp. medias Precipitaciones Rachas de viento máximas Velocidades máximas media en intervalos de 10 minutos

Datos horarios

Fecha y hora oficial Temperatura (ºC) Velocidad del viento (km/h) Dirección del viento Racha (km/h) Dirección de racha Precipitación (mm) Presión (hPa) Tendencia (hPa) Humedad (%)
2020-04-02 23:00:00 7.8 6 Nordeste 18 Nordeste 0 910.9 2.2 80
2020-04-02 22:00:00 8.8 5 Norte 9 Norte 0 910.2 1.9 79
2020-04-02 21:00:00 8.7 4 Nordeste 19 Nordeste 0 909.4 1.6 77
2020-04-02 20:00:00 9.1 8 Nordeste 23 Nordeste 0 908.7 1.1 76
2020-04-02 19:00:00 9.6 9 Norte 27 Norte 0 908.3 0.8 72
2020-04-02 18:00:00 10.4 10 Nordeste 26 Nordeste 0 907.8 -0.1 70
2020-04-02 17:00:00 10.2 12 Norte 25 Norte 0.2 907.6 -0.5 73
2020-04-02 16:00:00 11.2 10 Noroeste 27 Oeste 0.4 907.5 -1.1 70
2020-04-02 15:00:00 10.8 11 Noroeste 25 Noroeste 0 907.9 -0.8 74
2020-04-02 14:00:00 10.7 8 Noroeste 21 Oeste 0 908.1 -0.4 72
2020-04-02 13:00:00 9.6 9 Oeste 17 Oeste 0 908.6 0.6 74
2020-04-02 12:00:00 8.3 6 Noroeste 18 Noroeste 0 908.7 1.3 75
2020-04-02 11:00:00 7.9 6 Norte 18 Norte 0 908.5 1.2 78
2020-04-02 10:00:00 6.8 9 Nordeste 18 Nordeste 0 908 1 85
2020-04-02 09:00:00 6.7 6 Noroeste 12 Noroeste 0 907.4 0.4 91
2020-04-02 08:00:00 5.9 2 Sur 13 Oeste 0 907.3 0.1 92
2020-04-02 07:00:00 5.6 7 Oeste 13 Oeste 0 907 -0.6 92
2020-04-02 06:00:00 5.3 5 Oeste 10 Oeste 0 907 -1.2 89
2020-04-02 05:00:00 5 8 Oeste 10 Oeste 0 907.2 -1.3 90
2020-04-02 04:00:00 5.2 2 Oeste 9 Oeste 0 907.6 -1.2 89
2020-04-02 03:00:00 5.9 7 Oeste 10 Oeste 0 908.2 -0.6 87
2020-04-02 02:00:00 6.2 6 Oeste 14 Oeste 0 908.5 -0.2 89
2020-04-02 01:00:00 6.5 5 Oeste 12 Oeste 0 908.8 0.5 91
2020-04-02 00:00:00 6.6 4 Oeste 10 Noroeste 0 908.8 1.1 88
2020-04-01 23:00:00 7.5 3 Norte 9 Noroeste 0 908.7 1.5 87
2020-04-01 22:00:00 8.2 6 Noroeste 12 Noroeste 0 908.3 1.1 86
2020-04-01 21:00:00 9 2 Norte 13 Noroeste 0 907.7 1.1 84
2020-04-01 20:00:00 9.3 5 Norte 22 Nordeste 0.6 907.2 0.8 86
2020-04-01 19:00:00 9.9 8 Noroeste 25 Oeste 0.6 907.2 0.4 80
2020-04-01 18:00:00 12.1 6 Norte 14 Nordeste 0.2 906.6 -0.6 72
2020-04-01 17:00:00 13.5 6 Nordeste 14 Nordeste 0 906.4 -1 64
2020-04-01 16:00:00 12.1 6 Sur 14 Nordeste 0.2 906.8 -1.3 75
2020-04-01 15:00:00 12.2 7 Este 24 Noroeste 1.2 907.2 -1.4 73
2020-04-01 14:00:00 13.5 6 Noroeste 13 Noroeste 0 907.4 -1.4 61
2020-04-01 13:00:00 12.4 5 Nordeste 12 Norte 0 908.1 -0.4 69
2020-04-01 12:00:00 11 5 Noroeste 11 Norte 0 908.6 0.4 76
2020-04-01 11:00:00 9.4 4 Nordeste 9 Nordeste 0 908.8 1 85
2020-04-01 10:00:00 7.1 2 Noroeste 9 Noroeste 0.4 908.5 0.7 95
2020-04-01 09:00:00 6.7 6 Oeste 8 Oeste 0 908.2 0.4 96
2020-04-01 08:00:00 6.6 3 Oeste 12 Este 0 907.8 -0.1 95
2020-04-01 07:00:00 6.5 4 Nordeste 6 Norte 0.6 907.8 -0.3 96
2020-04-01 06:00:00 6.9 0 Calma 8 Oeste 0.8 907.8 -0.4 93
2020-04-01 05:00:00 7.3 5 Sur 15 Sudeste 2.8 907.9 -0.4 90
2020-04-01 04:00:00 7.6 3 Este 9 Este 0.2 908.1 -0.4 91
2020-04-01 03:00:00 7.6 3 Oeste 9 Nordeste 0 908.2 -0.4 90
2020-04-01 02:00:00 7.6 4 Nordeste 10 Este 0.2 908.3 -0.4 88
2020-04-01 01:00:00 7.9 0 Calma 12 Sudeste 0 908.5 0.2 87
2020-04-01 00:00:00 7.9 4 Noroeste 14 Sudoeste 0.2 908.6 1 88
2020-03-31 23:00:00 8.5 3 Sudoeste 13 Norte 0 908.7 1.8 81
2020-03-31 22:00:00 8.7 4 Noroeste 13 Sudeste 0 908.3 1.8 79
2020-03-31 21:00:00 8.1 5 Este 27 Sudeste 0 907.6 1.1 82
2020-03-31 20:00:00 9.6 7 Sudeste 21 Sudeste 0 906.9 0.6 76
2020-03-31 19:00:00 10.7 8 Sudeste 23 Sur 0 906.5 0.1 76
2020-03-31 18:00:00 10.4 6 Sur 21 Sudeste 0 906.5 -0.2 75
2020-03-31 17:00:00 10.3 11 Sur 27 Sur 0 906.3 -0.4 77
2020-03-31 16:00:00 9.3 8 Este 18 Este 0 906.4 -0.6 83
2020-03-31 15:00:00 6.2 4 Sur 15 Sudoeste 0 906.7 -0.3 90
2020-03-31 14:00:00 4.6 8 Oeste 14 Oeste 0.2 906.7 -0.3 94
2020-03-31 13:00:00 2.7 5 Oeste 16 Oeste 0.2 907 0.5 94
2020-03-31 12:00:00 1.7 6 Oeste 15 Oeste 0.2 907 0.7 93
2020-03-31 11:00:00 1.3 6 Oeste 12 Oeste 0 907 1.1 93
2020-03-31 10:00:00 1.1 4 Oeste 10 Oeste 0.6 906.5 0.7 92
2020-03-31 09:00:00 0.3 5 Oeste 15 Oeste 0 906.3 0.2 93
2020-03-31 08:00:00 -0.1 5 Oeste 14 Oeste 0.2 905.9 -0.3 94
2020-03-31 07:00:00 -0.1 4 Oeste 13 Noroeste 0 905.8 -1.4 94
2020-03-31 06:00:00 -0.4 6 Noroeste 16 Noroeste 0 906.1 -1.7 93
2020-03-31 05:00:00 -0.2 7 Noroeste 14 Noroeste 0 906.2 -1.9 92
2020-03-31 04:00:00 0.1 5 Noroeste 12 Noroeste 0.4 907.2 -1.2 93
2020-03-31 03:00:00 0.2 4 Noroeste 9 Noroeste 1.6 907.8 -0.9 94
2020-03-31 02:00:00 0.3 4 Noroeste 10 Noroeste 1.6 908.1 -1.1 94
2020-03-31 01:00:00 0.4 4 Noroeste 9 Noroeste 1.2 908.4 -1.1 94
2020-03-31 00:00:00 0.4 4 Noroeste 9 Norte 0.6 908.7 -0.6 93
2020-03-30 23:00:00 0.4 5 Noroeste 9 Norte 0.8 909.2 -0.2 93
2020-03-30 22:00:00 0.4 3 Norte 9 Norte 0.6 909.5 0.1 93
2020-03-30 21:00:00 0.7 3 Norte 11 Norte 0.4 909.3 0.2 91
2020-03-30 20:00:00 0.8 6 Nordeste 15 Nordeste 0.2 909.4 0 89
2020-03-30 19:00:00 1.5 6 Nordeste 16 Nordeste 0.2 909.4 -0.3 86
2020-03-30 18:00:00 2.5 10 Nordeste 23 Norte 0 909.1 -1.1 73
2020-03-30 17:00:00 2.6 11 Norte 21 Norte 0 909.4 -1.2 75
2020-03-30 16:00:00 3.4 8 Norte 22 Norte 0 909.7 -1.5 73
2020-03-30 15:00:00 3.2 9 Norte 20 Noroeste 0 910.2 -1.4 75
2020-03-30 14:00:00 3.7 9 Nordeste 17 Nordeste 0.2 910.6 -0.5 77
2020-03-30 13:00:00 1.1 7 Nordeste 15 Norte 0.6 911.2 0.9 94
2020-03-30 12:00:00 1.3 5 Norte 21 Norte 0.8 911.6 1.6 91
2020-03-30 11:00:00 3.3 10 Norte 22 Noroeste 0 911.1 1.1 86
2020-03-30 10:00:00 3.6 13 Noroeste 24 Noroeste 0 910.3 0.5 84
2020-03-30 09:00:00 4.7 8 Noroeste 15 Noroeste 0 910 0 84
2020-03-30 08:00:00 4.9 3 Norte 16 Norte 0 910 -0.5 79
2020-03-30 07:00:00 4.7 6 Norte 16 Norte 0 909.8 -1.1 79
2020-03-30 06:00:00 4.4 4 Norte 8 Norte 0 910 -1.7 81
2020-03-30 05:00:00 4.7 4 Noroeste 11 Noroeste 0 910.5 -1.5 80
2020-03-30 04:00:00 4.9 5 Noroeste 11 Noroeste 0 910.9 -1.5 78
2020-03-30 03:00:00 5.5 5 Noroeste 11 Noroeste 0 911.7 -0.8 77
2020-03-30 02:00:00 6 3 Norte 12 Noroeste 0 912 -0.3 78
2020-03-30 01:00:00 5.9 5 Noroeste 15 Noroeste 0 912.4 0.5 77
2020-03-30 00:00:00 6.4 6 Noroeste 18 Noroeste 0 912.5 1.7 76
2020-03-29 23:00:00 8.1 8 Noroeste 18 Noroeste 0 912.3 1.9 65
2020-03-29 22:00:00 9.6 9 Oeste 23 Nordeste 0 911.9 1.6 56
2020-03-29 21:00:00 11.8 8 Nordeste 17 Nordeste 0 910.8 0.5 44
2020-03-29 20:00:00 14.5 6 Nordeste 18 Norte 0 910.4 -0.3 37
2020-03-29 19:00:00 16.9 9 Norte 23 Norte 0 910.3 -1 30
2020-03-29 18:00:00 17.9 8 Norte 23 Norte 0 910.3 -1.8 31
2020-03-29 17:00:00 17.8 9 Norte 23 Norte 0 910.7 -2 33
2020-03-29 16:00:00 17.4 10 Norte 27 Norte 0 911.3 -2.2 31
2020-03-29 15:00:00 17 9 Noroeste 27 Noroeste 0 912.1 -2.1 34
2020-03-29 14:00:00 16.1 8 Norte 17 Norte 0 912.7 -1.9 34
2020-03-29 13:00:00 14 4 Noroeste 10 Nordeste 0 913.5 -1.5 44
2020-03-29 12:00:00 11.6 4 Este 8 Este 0 914.2 -0.8 52
2020-03-29 11:00:00 7.7 3 Este 7 Este 0 914.6 -0.2 67
2020-03-29 10:00:00 3.8 2 Sur 5 Sudoeste 0 915 0.5 80
2020-03-29 09:00:00 0.4 0 Calma 4 Oeste 0 915 0.5 93
2020-03-29 08:00:00 -0.6 3 Oeste 5 Norte 0 914.8 0 93
2020-03-29 07:00:00 -0.5 2 Noroeste 5 Noroeste 0 914.5 -0.5 92
2020-03-29 06:00:00 0 3 Oeste 7 Oeste 0 914.5 -0.9 92
2020-03-29 05:00:00 0.6 2 Noroeste 7 Oeste 0 914.8 -0.8 91
2020-03-29 03:00:00 1.6 2 Noroeste 5 Nordeste 0 915.4 0.1 91
2020-03-29 01:00:00 2.4 3 Noroeste 4 Norte 0 915.6 0.5 88
2020-03-29 00:00:00 3.6 0 Calma 6 Norte 0 915.6 1 81
2020-03-28 23:00:00 4.8 2 Nordeste 3 Este 0 915.3 1.4 81
2020-03-28 22:00:00 6.4 2 Sudeste 6 Norte 0 915.1 1.6 73
2020-03-28 21:00:00 7.9 4 Nordeste 9 Norte 0 914.6 1.5 68
2020-03-28 20:00:00 10.9 3 Noroeste 8 Noroeste 0 913.9 1 54
2020-03-28 19:00:00 11.7 4 Oeste 11 Oeste 0 913.5 0.5 49
2020-03-28 18:00:00 12.5 4 Sudoeste 14 Oeste 0 913.1 -0.2 45
2020-03-28 17:00:00 13.2 3 Norte 13 Oeste 0 912.9 -0.9 41
2020-03-28 16:00:00 12.8 7 Sur 14 Sur 0 913 -1 44
2020-03-28 15:00:00 12 5 Este 9 Este 0 913.3 -0.9 47
2020-03-28 14:00:00 11.2 4 Sudoeste 12 Sur 0 913.8 -0.3 50
2020-03-28 13:00:00 10.7 4 Sudeste 13 Sur 0 914 -0.3 55
2020-03-28 12:00:00 9.3 5 Sudeste 13 Sudeste 0 914.2 0.3 64
2020-03-28 11:00:00 8.6 5 Oeste 14 Norte 0 914.1 0.7 64
2020-03-28 10:00:00 5.1 6 Noroeste 14 Noroeste 0 914.3 1.3 81
2020-03-28 09:00:00 3 3 Oeste 6 Sudoeste 0 913.9 1 88
2020-03-28 08:00:00 1.6 0 Calma 3 Sudeste 0 913.4 0.9 90
2020-03-28 07:00:00 1.2 0 Calma 4 Este 0 913 0.5 92
2020-03-28 06:00:00 0.7 0 Calma 4 Este 0 912.9 0.4 92
2020-03-28 05:00:00 0.3 0 Calma 5 Oeste 0 912.5 0 93
2020-03-28 04:00:00 -0.2 3 Oeste 7 Norte 0 912.5 0.2 94
2020-03-28 03:00:00 -0.6 3 Norte 5 Nordeste 0 912.5 0.4 93
2020-03-28 02:00:00 0.2 3 Norte 6 Norte 0 912.5 0.8 92
2020-03-28 01:00:00 0.7 2 Noroeste 5 Noroeste 0 912.3 1 90
2020-03-28 00:00:00 1.4 3 Oeste 5 Nordeste 0 912.1 1.3 89
2020-03-27 23:00:00 2.9 0 Calma 4 Nordeste 0 911.7 1.7 87
2020-03-27 22:00:00 3.6 3 Sudeste 13 Sur 0 911.3 1.8 85
2020-03-27 21:00:00 5.4 6 Sur 16 Sur 0 910.8 2.1 78
2020-03-27 20:00:00 6.9 5 Sudeste 13 Sudeste 0 910 1.8 64
2020-03-27 19:00:00 6.8 3 Sudeste 26 Nordeste 0 909.5 1.3 66
2020-03-27 18:00:00 10.5 8 Sudeste 22 Sudeste 0 908.7 0.3 52
2020-03-27 17:00:00 10.9 11 Sudeste 28 Sur 0 908.2 -0.6 48
2020-03-27 16:00:00 12.2 15 Sur 32 Sur 0 908.2 -0.8 45
2020-03-27 15:00:00 11.6 10 Sur 32 Sur 0 908.4 -0.7 41
2020-03-27 14:00:00 11.2 9 Sudeste 24 Sur 0 908.8 -0.3 48
2020-03-27 13:00:00 8.6 4 Este 15 Sur 0 909 -0.1 52
2020-03-27 12:00:00 8 4 Sudeste 17 Nordeste 0 909.1 0.2 52
2020-03-27 11:00:00 6.3 8 Nordeste 16 Norte 0 909.1 0.5 60
2020-03-27 10:00:00 3.7 5 Nordeste 13 Sudoeste 0 909.1 0.8 68
2020-03-27 09:00:00 2 5 Noroeste 12 Noroeste 0 908.9 0.9 77
2020-03-27 08:00:00 -0.2 7 Oeste 12 Oeste 0 908.6 0.9 85
2020-03-27 07:00:00 -1 5 Oeste 12 Noroeste 0 908.3 0.7 85
2020-03-27 06:00:00 -1.5 5 Noroeste 10 Noroeste 0 908 0.2 86
2020-03-27 05:00:00 -1.4 3 Sur 6 Nordeste 0 907.7 -0.1 85
2020-03-27 04:00:00 -1.5 3 Norte 5 Norte 0 907.6 0 84
2020-03-27 03:00:00 -1 3 Sudeste 7 Oeste 0 907.8 -0.1 81
2020-03-27 02:00:00 -0.3 5 Oeste 12 Oeste 0 907.8 0.1 78
2020-03-27 01:00:00 0.3 5 Noroeste 9 Noroeste 0 907.6 0 74
2020-03-27 00:00:00 1.7 4 Noroeste 15 Noroeste 0 907.9 0.8 66
2020-03-26 23:00:00 2.9 5 Noroeste 15 Oeste 0 907.7 1.4 63
2020-03-26 22:00:00 3.1 5 Noroeste 15 Oeste 0 907.6 1.9 62
2020-03-26 21:00:00 4 3 Norte 9 Nordeste 0 907.1 2.1 56
2020-03-26 20:00:00 5.2 5 Nordeste 23 Nordeste 0 906.3 1.9 51
2020-03-26 19:00:00 7.3 11 Nordeste 31 Nordeste 0 905.7 1.3 44
2020-03-26 18:00:00 9.6 11 Nordeste 28 Noroeste 0 905 0.4 41
2020-03-26 17:00:00 9.5 18 Noroeste 36 Noroeste 0 904.4 -0.5 37
2020-03-26 16:00:00 9.7 15 Noroeste 37 Norte 0 904.4 -1.1 40
2020-03-26 15:00:00 8.5 15 Norte 40 Noroeste 0 904.6 -0.5 51
2020-03-26 14:00:00 7.3 15 Oeste 43 Noroeste 0 904.9 -0.7 63
2020-03-26 13:00:00 5.8 19 Noroeste 46 Noroeste 0 905.5 0.1 72
2020-03-26 12:00:00 7.7 18 Noroeste 36 Norte 0 905.1 -0.4 62
2020-03-26 11:00:00 5.7 13 Norte 31 Noroeste 0 905.6 -0.1 69
2020-03-26 10:00:00 5.4 10 Noroeste 26 Noroeste 0 905.4 -0.7 73
2020-03-26 09:00:00 4.3 10 Noroeste 24 Noroeste 0 905.5 -0.4 73
2020-03-26 08:00:00 2.9 7 Noroeste 18 Noroeste 0 905.7 -0.3 80
2020-03-26 07:00:00 2.6 7 Noroeste 22 Oeste 0 906.1 -0.3 86
2020-03-26 06:00:00 3.8 9 Noroeste 19 Noroeste 0 905.9 -1.1 88
2020-03-26 05:00:00 3.1 8 Oeste 12 Oeste 0 906 -1.6 94
2020-03-26 04:00:00 3.6 5 Oeste 7 Oeste 0 906.4 -2 91
2020-03-26 03:00:00 4.7 4 Sur 9 Sur 0 907 -2 89
2020-03-26 02:00:00 4.7 6 Sur 12 Sur 0 907.6 -1.8 90
2020-03-26 01:00:00 4.2 3 Sudeste 7 Este 0 908.4 -1.2 94
2020-03-26 00:00:00 3.8 3 Sudeste 11 Sur 0 909 -0.7 92
2020-03-25 23:00:00 4.1 2 Sudeste 9 Sur 0 909.4 -0.1 87
2020-03-25 22:00:00 4.7 4 Sudeste 20 Sur 0 909.6 0.6 85
2020-03-25 21:00:00 5.5 13 Sur 24 Sur 0 909.7 0.9 86
2020-03-25 20:00:00 7.4 5 Sudeste 18 Sur 0 909.5 0.4 75
2020-03-25 19:00:00 10.1 5 Norte 23 Nordeste 0 909 -0.5 51
2020-03-25 18:00:00 11.9 10 Nordeste 27 Norte 0 908.8 -1.1 41
2020-03-25 17:00:00 12 9 Norte 25 Norte 0 909.1 -1.2 41
2020-03-25 16:00:00 11.9 12 Norte 26 Norte 0 909.5 -1.3 44
2020-03-25 15:00:00 11.5 12 Nordeste 29 Nordeste 0 909.9 -1.5 55
2020-03-25 14:00:00 9.9 5 Sudoeste 10 Sur 0.2 910.3 -1.6 68
2020-03-25 13:00:00 9.3 6 Este 15 Este 0 910.8 -1.4 75
2020-03-25 12:00:00 7.9 10 Sur 17 Sur 0 911.4 -0.7 81
2020-03-25 11:00:00 6.3 10 Sur 20 Sur 0.4 911.9 -0.1 86
2020-03-25 10:00:00 4.8 9 Sur 17 Sur 0.6 912.2 0.5 91
2020-03-25 09:00:00 4.4 3 Sur 6 Sur 0 912.1 0 93
2020-03-25 08:00:00 4.1 5 Sur 10 Sur 0 912 -0.1 92
2020-03-25 07:00:00 4.3 5 Sur 10 Sur 0.6 911.7 -0.7 93
2020-03-25 06:00:00 4.1 2 Nordeste 4 Norte 0.8 912.1 -0.7 94
2020-03-25 05:00:00 4.1 3 Norte 6 Norte 0.4 912.1 -0.8 94
2020-03-25 04:00:00 4.3 2 Noroeste 5 Noroeste 0.4 912.4 -0.6 92
2020-03-25 03:00:00 3.9 3 Norte 7 Nordeste 0 912.8 -0.5 90
2020-03-25 02:00:00 3.4 2 Norte 8 Oeste 0 912.9 -0.6 90
2020-03-25 01:00:00 3.9 3 Noroeste 8 Sudoeste 0 913 -0.3 87
2020-03-25 00:00:00 5 4 Sur 16 Sur 0 913.3 0.2 82
2020-03-24 23:00:00 5.4 3 Sudeste 13 Sur 0 913.5 0.5 81
2020-03-24 22:00:00 6.3 7 Sur 12 Sur 0 913.3 0.7 80
2020-03-24 21:00:00 7.5 5 Sur 13 Este 0 913.1 1 75
2020-03-24 20:00:00 8.1 4 Este 17 Este 0 913 1 72
2020-03-24 19:00:00 8.6 6 Este 18 Este 0 912.6 0.5 69
2020-03-24 18:00:00 9.2 7 Este 19 Sudeste 0 912.1 -0.3 68
2020-03-24 17:00:00 10 6 Sudeste 21 Sudeste 0 912 -0.9 67
2020-03-24 16:00:00 12.1 8 Sudeste 26 Sur 0 912.1 -1.5 60
2020-03-24 15:00:00 13.1 8 Sudeste 21 Sudeste 0 912.4 -1.3 53
2020-03-24 14:00:00 12.4 9 Este 19 Sudeste 0 912.9 -0.8 56
2020-03-24 13:00:00 12.3 10 Este 23 Sudeste 0 913.6 0.1 56
2020-03-24 12:00:00 11.9 8 Este 19 Sudeste 0 913.7 0.4 65
2020-03-24 11:00:00 9.8 6 Sudeste 21 Este 0 913.7 0.5 77
2020-03-24 10:00:00 9.6 3 Noroeste 8 Oeste 0 913.5 0.7 72
2020-03-24 09:00:00 8.2 5 Oeste 8 Oeste 0 913.3 0.4 80
2020-03-24 08:00:00 7 3 Sudoeste 9 Oeste 0 913.2 0.6 88
2020-03-24 07:00:00 6.6 3 Norte 10 Noroeste 0 912.8 -0.3 89
2020-03-24 06:00:00 6.9 4 Noroeste 8 Noroeste 0 912.9 -0.3 86
2020-03-24 05:00:00 6.8 4 Noroeste 10 Noroeste 0 912.6 -0.6 86
2020-03-24 04:00:00 7 6 Norte 10 Norte 0 913.1 -0.6 86
2020-03-24 03:00:00 7.6 3 Sur 10 Sudoeste 0 913.2 -0.7 82
2020-03-24 02:00:00 8.1 2 Este 10 Nordeste 0 913.2 -0.6 78
2020-03-24 01:00:00 8.6 3 Noroeste 11 Noroeste 0 913.7 -0.1 79
2020-03-24 00:00:00 8.4 3 Sudeste 15 Este 0 913.9 0.2 82
2020-03-23 23:00:00 8.3 2 Nordeste 6 Noroeste 0 913.8 0.6 85
2020-03-23 22:00:00 8.5 3 Oeste 5 Este 0 913.8 0.9 83
2020-03-23 21:00:00 8.6 3 Sudeste 15 Sudeste 0 913.7 1.2 82
2020-03-23 20:00:00 8.6 4 Este 17 Este 0 913.2 0.9 80
2020-03-23 19:00:00 9.8 8 Este 20 Este 0 912.9 0.6 75
2020-03-23 18:00:00 11.1 8 Este 19 Sudeste 0 912.5 0.3 68
2020-03-23 17:00:00 10.8 7 Este 23 Sudeste 0.2 912.3 -0.2 78
2020-03-23 16:00:00 13.6 9 Sudeste 23 Este 0 912.3 -0.6 61
2020-03-23 15:00:00 13 12 Este 24 Este 0 912.2 -0.9 65
2020-03-23 14:00:00 13.5 10 Este 23 Este 0 912.5 -0.5 65
2020-03-23 13:00:00 11.8 12 Este 31 Sudeste 0 912.9 0.1 72
2020-03-23 12:00:00 11 9 Este 30 Este 0 913.1 0.7 82
2020-03-23 11:00:00 8.4 3 Nordeste 7 Noroeste 0.2 913 1.2 90
2020-03-23 10:00:00 7.8 3 Oeste 5 Oeste 0.2 912.8 1.3 93
2020-03-23 09:00:00 7 3 Sudoeste 8 Oeste 0.2 912.4 1.4 95
2020-03-23 08:00:00 6.9 3 Norte 6 Noroeste 0.2 911.8 1 95
2020-03-23 07:00:00 6.8 2 Este 6 Noroeste 0 911.5 0.8 94
2020-03-23 06:00:00 7 3 Oeste 5 Noroeste 0 911 0.2 92
2020-03-23 05:00:00 6.7 0 Calma 8 Noroeste 0.2 910.8 -0.1 93
2020-03-23 04:00:00 7 3 Noroeste 7 Noroeste 0.2 910.7 -0.3 90
2020-03-23 03:00:00 7.3 3 Sudeste 7 Norte 0 910.8 -0.2 88
2020-03-23 02:00:00 7.6 2 Este 8 Sur 0 910.9 0 83
2020-03-23 01:00:00 7.5 2 Este 6 Oeste 0 911 0.3 84
2020-03-23 00:00:00 7.6 0 Calma 11 Sur 0 911 0.7 84
2020-03-22 23:00:00 7.4 3 Este 8 Este 0 910.9 1.5 84
2020-03-22 22:00:00 7.3 5 Este 14 Sudeste 0 910.7 1.8 84
2020-03-22 21:00:00 7.7 3 Este 17 Este 0 910.3 1.9 83
2020-03-22 20:00:00 8 6 Este 20 Este 0 909.4 1.3 83
2020-03-22 19:00:00 8.9 9 Este 24 Este 0 908.9 0.9 79
2020-03-22 18:00:00 10.4 8 Este 20 Este 0 908.4 0.1 74
2020-03-22 17:00:00 10.8 7 Este 15 Nordeste 0 908.1 -0.4 73
2020-03-22 16:00:00 10 8 Nordeste 14 Este 0 908 -0.8 82
2020-03-22 15:00:00 10.1 5 Sur 13 Sur 0 908.3 -0.4 77
2020-03-22 14:00:00 9.8 5 Nordeste 10 Sudeste 0 908.5 -0.2 75
2020-03-22 13:00:00 9.7 5 Sur 10 Sur 0 908.8 0.5 78
2020-03-22 12:00:00 9.5 2 Este 4 Este 0.2 908.7 0.7 79
2020-03-22 11:00:00 9.4 2 Sudeste 5 Sudeste 0 908.7 0.8 79
2020-03-22 10:00:00 8.6 3 Norte 5 Norte 0 908.3 0.7 84
2020-03-22 09:00:00 7.1 3 Noroeste 6 Oeste 0 908 0.4 92
2020-03-22 08:00:00 6.4 0 Calma 3 Nordeste 0 907.9 0.4 95
2020-03-22 07:00:00 6.2 0 Calma 3 Norte 0.2 907.6 -0.2 93
2020-03-22 06:00:00 5.9 0 Calma 3 Norte 1 907.6 -0.4 96
2020-03-22 05:00:00 6.3 2 Sudoeste 10 Sudoeste 1.8 907.5 -1 95
2020-03-22 04:00:00 6.4 3 Este 5 Este 1 907.8 -0.9 93
2020-03-22 03:00:00 6.5 2 Sudeste 8 Sudeste 0.2 908 -0.8 94
2020-03-22 02:00:00 6.7 6 Sur 14 Sur 0.2 908.5 -0.4 93
2020-03-22 01:00:00 7.4 8 Sur 18 Sur 0.4 908.7 -0.2 91
2020-03-22 00:00:00 8 5 Sur 15 Sur 0 908.8 0 90
2020-03-21 23:00:00 8.1 10 Sur 17 Sur 0 908.9 0.7 88
2020-03-21 22:00:00 8.4 8 Sur 16 Sur 0 908.9 1.2 85
2020-03-21 21:00:00 9 13 Sur 21 Sur 0 908.8 1.5 81
2020-03-21 20:00:00 9.6 5 Este 15 Sudeste 0 908.2 0.5 77
2020-03-21 19:00:00 10.6 2 Sudeste 8 Sur 0 907.7 -0.5 68
2020-03-21 18:00:00 10.8 3 Sudoeste 6 Sur 0 907.3 -1.3 67
2020-03-21 17:00:00 10.9 3 Sudeste 15 Sudoeste 0 907.7 -1.4 68
2020-03-21 16:00:00 10.7 6 Sur 18 Sur 0 908.2 -1.5 67
2020-03-21 15:00:00 11.2 10 Sur 17 Sur 0 908.6 -1.5 65
2020-03-21 14:00:00 11.3 5 Sudoeste 15 Sur 0 909.1 -1.4 65
2020-03-21 13:00:00 10.3 5 Oeste 10 Sudoeste 0 909.7 -1 67
2020-03-21 12:00:00 9.6 3 Sudoeste 6 Sudoeste 0 910.1 -0.4 71
2020-03-21 11:00:00 8.4 3 Este 8 Sudeste 0 910.5 0 75
2020-03-21 10:00:00 6.8 4 Oeste 6 Oeste 0 910.7 0.5 80
2020-03-21 09:00:00 5.6 2 Oeste 9 Oeste 0 910.5 0.2 87
2020-03-21 08:00:00 2.8 7 Oeste 10 Oeste 0 910.5 0.1 93
2020-03-21 07:00:00 2.9 2 Oeste 10 Oeste 0 910.2 -0.6 91
2020-03-21 06:00:00 4.3 3 Sur 9 Oeste 0 910.3 -1.4 87
2020-03-21 05:00:00 5.7 3 Sudeste 12 Este 0 910.4 -1.8 82
2020-03-21 04:00:00 6.8 2 Sudeste 12 Sur 0 910.8 -1.5 77
2020-03-21 03:00:00 7.2 6 Sur 13 Sur 0 911.7 -1 75
2020-03-21 02:00:00 7.4 8 Sur 21 Sur 0 912.2 -0.6 73
2020-03-21 01:00:00 7.1 7 Sudeste 21 Este 0 912.3 -0.4 75
2020-03-21 00:00:00 7.3 5 Sudeste 18 Sudeste 0 912.7 0.1 83
2020-03-20 23:00:00 7.4 5 Sudeste 15 Este 0 912.8 0.2 84
2020-03-20 22:00:00 7.8 5 Sudeste 12 Sudeste 0 912.7 0.2 82
2020-03-20 21:00:00 8.3 7 Sudoeste 13 Sur 0 912.6 0.2 79
2020-03-20 20:00:00 8.8 5 Este 22 Este 0 912.6 0 78
2020-03-20 19:00:00 9.7 10 Este 21 Sudeste 0 912.5 -0.2 74
2020-03-20 18:00:00 11.3 9 Este 20 Este 0 912.4 -0.6 67
2020-03-20 17:00:00 13 6 Sudeste 23 Sudeste 0 912.6 -0.9 61
2020-03-20 16:00:00 14.1 8 Sudeste 32 Este 0 912.7 -1.4 55
2020-03-20 15:00:00 14.3 8 Sudeste 20 Sur 0 913 -1.4 55
2020-03-20 14:00:00 13 9 Sur 17 Sur 0 913.5 -1.1 58
2020-03-20 13:00:00 11.9 9 Sudeste 21 Sur 0 914.1 -0.6 61
2020-03-20 12:00:00 11.2 8 Sudeste 23 Este 0 914.4 -0.3 65
2020-03-20 11:00:00 10.3 8 Sudeste 21 Sur 0 914.6 0.4 65
2020-03-20 10:00:00 9 10 Sudeste 22 Sur 0 914.7 0.7 69
2020-03-20 09:00:00 7.9 6 Sudeste 17 Sur 0 914.7 0.7 76
2020-03-20 08:00:00 6.9 4 Este 9 Nordeste 0 914.2 0 81
2020-03-20 07:00:00 6.2 2 Sudeste 5 Sur 0 914 -0.3 80
2020-03-20 06:00:00 6 0 Calma 6 Sur 0 914 -0.8 81
2020-03-20 05:00:00 6.8 5 Sur 9 Sur 0 914.2 -0.7 77
2020-03-20 04:00:00 7 4 Sur 13 Sur 0 914.3 -0.9 78
2020-03-20 03:00:00 7.1 9 Sur 15 Sur 0 914.8 -0.8 80
2020-03-20 02:00:00 7.3 9 Sur 15 Sudoeste 0 914.9 -0.9 75
2020-03-20 01:00:00 7.5 4 Sudeste 15 Sur 0 915.2 -0.6 79
2020-03-20 00:00:00 7.3 4 Sur 14 Sur 0 915.6 -0.2 78
2020-03-19 23:00:00 7.3 6 Sudeste 15 Sur 0 915.8 0.1 81
2020-03-19 22:00:00 8.2 3 Sur 16 Sur 0 915.8 0.5 80
2020-03-19 21:00:00 9.1 10 Sur 19 Sur 0 915.8 0.7 78
2020-03-19 20:00:00 10.2 9 Sur 23 Sur 0 915.7 0.7 70
2020-03-19 19:00:00 11.7 12 Sur 23 Sudeste 0 915.3 0 61
2020-03-19 18:00:00 13.3 9 Sudeste 23 Sur 0 915.1 -0.7 53
2020-03-19 17:00:00 14.8 8 Este 24 Este 0 915 -1.6 49
2020-03-19 16:00:00 17.2 7 Sudeste 22 Este 0 915.3 -2.1 42
2020-03-19 15:00:00 17.2 9 Este 24 Este 0 915.8 -2.3 39
2020-03-19 14:00:00 16.5 12 Este 24 Este 0 916.6 -2.1 42
2020-03-19 13:00:00 15.7 10 Este 21 Este 0 917.4 -1.4 43
2020-03-19 12:00:00 12.7 8 Sudeste 15 Sur 0 918.1 -0.7 58
2020-03-19 11:00:00 10.2 5 Sur 12 Sur 0 918.7 0.2 72
2020-03-19 10:00:00 7.3 6 Sur 11 Sur 0 918.8 0.4 86
2020-03-19 09:00:00 5.3 3 Sur 5 Este 0 918.8 0.4 94
2020-03-19 08:00:00 4.1 2 Sudeste 7 Nordeste 0 918.5 -0.1 90
2020-03-19 07:00:00 4.5 3 Noroeste 7 Nordeste 0 918.4 -0.4 85
2020-03-19 06:00:00 5.1 0 Calma 8 Norte 0 918.4 -0.8 85
2020-03-19 05:00:00 5.3 3 Noroeste 8 Noroeste 0 918.6 -1.3 85
2020-03-19 04:00:00 5.2 3 Nordeste 5 Nordeste 0 918.8 -1.4 88
2020-03-19 03:00:00 5.7 4 Norte 7 Norte 0 919.2 -1.2 88
2020-03-19 02:00:00 6.3 4 Noroeste 8 Norte 0 919.9 -0.7 88
2020-03-19 01:00:00 6.8 4 Noroeste 8 Noroeste 0 920.2 -0.6 86
2020-03-19 00:00:00 7.1 3 Oeste 12 Este 0 920.4 -0.4 84
2020-03-18 23:00:00 8.1 4 Nordeste 7 Nordeste 0 920.6 0.1 76
2020-03-18 22:00:00 9 0 Calma 11 Este 0 920.8 0.7 71
2020-03-18 21:00:00 9.4 3 Este 14 Este 0 920.8 0.8 70
2020-03-18 20:00:00 10.4 5 Sudeste 14 Sur 0 920.5 0.4 70
2020-03-18 19:00:00 11.8 5 Sudeste 14 Sudeste 0 920.1 -0.3 68
2020-03-18 18:00:00 13.4 4 Sudeste 16 Sudeste 0 920 -0.6 68
2020-03-18 17:00:00 14.4 4 Sudeste 12 Este 0 920.1 -1.2 66
2020-03-18 16:00:00 14.2 3 Oeste 11 Norte 0 920.4 -1.7 60
2020-03-18 15:00:00 14.2 5 Nordeste 12 Nordeste 0 920.6 -1.9 58
2020-03-18 14:00:00 14 4 Sudeste 10 Sur 0 921.3 -1.6 61
2020-03-18 13:00:00 12.4 4 Norte 10 Nordeste 0 922.1 -0.9 66
2020-03-18 12:00:00 11.5 3 Nordeste 12 Nordeste 0 922.5 -0.2 67
2020-03-18 11:00:00 9.7 4 Nordeste 8 Nordeste 0 922.9 0 77
2020-03-18 10:00:00 8 4 Norte 9 Nordeste 0 923 0.4 87
2020-03-18 09:00:00 6.7 5 Oeste 8 Oeste 0 922.7 0.2 90
2020-03-18 08:00:00 5.6 4 Nordeste 11 Este 0 922.9 0.4 92
2020-03-18 07:00:00 5.9 6 Norte 12 Norte 0 922.6 0 93
2020-03-18 06:00:00 6.5 9 Nordeste 24 Este 0 922.5 -0.5 90
2020-03-18 05:00:00 7 8 Nordeste 16 Nordeste 0 922.5 -0.9 88
2020-03-18 04:00:00 7 4 Nordeste 11 Este 0 922.6 -1.2 89
2020-03-18 03:00:00 7.5 2 Norte 6 Oeste 0 923 -1.1 82
2020-03-18 02:00:00 8 3 Oeste 12 Nordeste 0 923.4 -0.7 82
2020-03-18 01:00:00 7.9 6 Este 13 Este 0 923.8 0.1 81
2020-03-18 00:00:00 8.5 5 Este 13 Este 0 924.1 0.8 82
2020-03-17 23:00:00 8.7 4 Sudeste 12 Sudeste 0 924.1 1.6 86
2020-03-17 22:00:00 8.9 5 Este 19 Este 0 923.7 1.5 89
2020-03-17 21:00:00 9.6 5 Sudeste 17 Este 0 923.3 1.4 86
2020-03-17 20:00:00 9.7 8 Este 17 Nordeste 0 922.5 1.1 89
2020-03-17 19:00:00 10.6 2 Sudeste 18 Nordeste 0 922.2 0.9 88
2020-03-17 18:00:00 11.3 0 Calma 9 Oeste 0 921.9 0.6 91
2020-03-17 17:00:00 11.2 4 Sudoeste 11 Oeste 0 921.4 0 92
2020-03-17 16:00:00 10.3 5 Oeste 12 Noroeste 0.6 921.3 -0.2 93
2020-03-17 15:00:00 9.8 6 Noroeste 12 Noroeste 1.4 921.3 -0.4 94
2020-03-17 14:00:00 9.6 8 Noroeste 14 Noroeste 1.4 921.4 0.2 93
2020-03-17 13:00:00 8.3 7 Oeste 12 Oeste 2 921.5 1.3 98
2020-03-17 12:00:00 7.7 3 Noroeste 10 Norte 1.4 921.7 2.2 97
2020-03-17 11:00:00 7.5 2 Sudeste 6 Sur 2.4 921.2 2.7 97
2020-03-17 10:00:00 7 2 Sudeste 5 Sur 2.8 920.2 2.3 98
2020-03-17 09:00:00 6.4 2 Noroeste 10 Oeste 3.2 919.5 2.7 98
2020-03-17 08:00:00 5.7 3 Nordeste 8 Nordeste 1.2 918.5 2 99
2020-03-17 07:00:00 5.2 3 Sudeste 17 Sur 3.8 917.9 1.7 98
2020-03-17 06:00:00 5.2 0 Calma 4 Este 2.6 916.8 0.8 97
2020-03-17 05:00:00 4.9 2 Oeste 6 Nordeste 3.2 916.5 0.7 97
2020-03-17 04:00:00 4.5 3 Nordeste 10 Oeste 4.4 916.2 0.7 96
2020-03-17 03:00:00 4.4 6 Oeste 12 Sudoeste 1 916 0.9 96
2020-03-17 02:00:00 3.9 4 Norte 12 Oeste 0 915.8 1 94
2020-03-17 01:00:00 3.7 4 Oeste 13 Oeste 0 915.5 1.5 96
2020-03-17 00:00:00 3.4 6 Noroeste 14 Oeste 0.2 915.1 1.7 95
2020-03-16 23:00:00 3.2 6 Oeste 11 Oeste 0 914.8 2.1 94
2020-03-16 22:00:00 3 5 Noroeste 8 Noroeste 0.2 914 1.9 95
2020-03-16 21:00:00 2.4 3 Noroeste 6 Noroeste 0.2 913.4 1.6 96
2020-03-16 20:00:00 2 2 Este 8 Sur 1.2 912.7 1.6 97
2020-03-16 19:00:00 1.5 3 Nordeste 13 Sudoeste 1 912.1 0.7 97
2020-03-16 18:00:00 1.6 7 Sudoeste 14 Sudoeste 0.4 911.8 1.8 97
2020-03-16 17:00:00 1.1 3 Nordeste 13 Sur 3 911.1 1.2 95
2020-03-16 16:00:00 2 6 Sudoeste 21 Oeste 2.6 911.4 1.2 94
2020-03-16 15:00:00 3.4 5 Oeste 21 Oeste 2.4 910 -0.1 93
2020-03-16 14:00:00 4.5 9 Oeste 15 Oeste 1.2 909.9 0.3 90
2020-03-16 13:00:00 4.6 3 Noroeste 10 Nordeste 1.2 910.2 2 87
2020-03-16 12:00:00 4.6 5 Nordeste 13 Nordeste 3.2 910.1 4.5 90
2020-03-16 11:00:00 5.3 3 Sudeste 18 Sur 5.8 909.6 3.8 95
2020-03-16 10:00:00 6 19 Sudoeste 53 Sudoeste 3.2 908.2 2.3 92
2020-03-16 09:00:00 8.7 12 Este 41 Este 0 905.6 -0.6 90
2020-03-16 08:00:00 8.1 9 Sudeste 27 Sur 0 905.8 -1.1 92
2020-03-16 07:00:00 7.8 9 Sudeste 28 Este 0.2 905.9 -1.5 93
2020-03-16 06:00:00 7.6 6 Sudeste 20 Este 0 906.2 -2.3 92
2020-03-16 05:00:00 7.1 5 Este 16 Sudeste 0.2 906.9 -1.9 94
2020-03-16 04:00:00 6.8 6 Sudeste 16 Sur 1.2 907.4 -1.8 92
2020-03-16 03:00:00 7.2 12 Sudeste 28 Sur 1.6 908.5 -1.3 91
2020-03-16 02:00:00 7.7 8 Este 21 Este 0.6 908.8 -1.3 91
2020-03-16 01:00:00 8.2 5 Sur 21 Este 0 909.2 -0.9 91
2020-03-16 00:00:00 8.6 6 Sudeste 27 Sur 0.6 909.8 -1.7 94
2020-03-15 23:00:00 8.7 14 Sudeste 35 Sur 1.2 910.1 -0.8 92
2020-03-15 22:00:00 8.6 7 Sudeste 22 Este 7 910.1 0.4 94
2020-03-15 21:00:00 9.5 3 Sudeste 14 Sudoeste 6.4 911.5 2.3 91
2020-03-15 20:00:00 11.5 7 Sudoeste 21 Sudeste 1.2 910.9 1.1 80
2020-03-15 19:00:00 13.3 6 Sudeste 27 Sur 0 909.7 -0.2 69
2020-03-15 18:00:00 15.8 15 Sur 30 Sur 0 909.2 -1.2 54
2020-03-15 17:00:00 16.9 13 Sur 30 Sudoeste 0 909.8 -1.8 50
2020-03-15 16:00:00 17.6 18 Sudoeste 32 Sudoeste 0 909.9 -2.6 45
2020-03-15 15:00:00 18.1 17 Sur 32 Sur 0 910.4 -2.9 44
2020-03-15 14:00:00 18.6 16 Sur 30 Sur 0 911.6 -2.3 42
2020-03-15 13:00:00 17.5 14 Sur 27 Sudoeste 0 912.5 -1.9 50
2020-03-15 12:00:00 17.4 12 Sur 23 Sur 0 913.3 -1.3 56
2020-03-15 11:00:00 14.9 9 Sur 17 Sur 0 913.9 -0.5 61
2020-03-15 10:00:00 11.8 3 Este 8 Sur 0 914.4 0.2 74
2020-03-15 09:00:00 8 4 Sudeste 9 Sur 0 914.6 0.2 91
2020-03-15 08:00:00 5.7 3 Nordeste 5 Este 0 914.4 -0.1 85
2020-03-15 07:00:00 5.7 2 Norte 6 Nordeste 0 914.2 -0.6 79
2020-03-15 06:00:00 5.7 2 Este 7 Este 0 914.4 -1 80
2020-03-15 05:00:00 5.2 2 Nordeste 5 Nordeste 0 914.5 -1.3 77
2020-03-15 04:00:00 5.1 3 Nordeste 6 Nordeste 0 914.8 -1.4 72
2020-03-15 03:00:00 5.9 2 Norte 4 Norte 0 915.4 -0.8 67
2020-03-15 02:00:00 6.8 2 Oeste 6 Norte 0 915.8 -0.5 69
2020-03-15 01:00:00 7.5 3 Norte 4 Norte 0 916.2 0.2 64
2020-03-15 00:00:00 9 0 Calma 5 Oeste 0 916.2 0.4 61
2020-03-14 23:00:00 11 4 Norte 12 Sudeste 0 916.3 0.9 62
2020-03-14 22:00:00 12 4 Este 18 Este 0 916 0.9 76
2020-03-14 21:00:00 13 5 Sudeste 17 Este 0 915.8 1.4 72
2020-03-14 20:00:00 14 6 Este 16 Sudeste 0 915.4 1.3 67
2020-03-14 19:00:00 15.9 7 Este 16 Este 0 915.1 0.9 59
2020-03-14 18:00:00 19.3 5 Norte 15 Oeste 0 914.4 -0.2 37
2020-03-14 17:00:00 20.8 10 Sudoeste 23 Oeste 0 914.1 -1.2 31
2020-03-14 16:00:00 21.2 10 Noroeste 19 Oeste 0 914.2 -1.9 31
2020-03-14 15:00:00 21 7 Nordeste 17 Norte 0 914.6 -2.2 39
2020-03-14 14:00:00 19.9 6 Norte 14 Noroeste 0 915.3 -2.2 45
2020-03-14 13:00:00 17.9 6 Oeste 15 Oeste 0 916.1 -1.6 49
2020-03-14 12:00:00 15.1 5 Noroeste 13 Noroeste 0 916.8 -0.8 59
2020-03-14 11:00:00 12.7 4 Este 9 Nordeste 0 917.5 0.5 65
2020-03-14 10:00:00 8.8 3 Este 6 Nordeste 0 917.7 1.2 76
2020-03-14 09:00:00 5.2 3 Sudoeste 7 Norte 0 917.6 1.6 87
2020-03-14 08:00:00 2.5 3 Norte 6 Norte 0 917 1.1 94
2020-03-14 07:00:00 2.1 3 Noroeste 8 Noroeste 0 916.5 0.4 93
2020-03-14 06:00:00 2.5 3 Norte 5 Norte 0 916 -0.3 93
2020-03-14 05:00:00 3 0 Calma 6 Oeste 0 915.9 -0.6 91
2020-03-14 04:00:00 3.3 4 Norte 8 Nordeste 0 916.1 -0.3 91
2020-03-14 03:00:00 4.4 0 Calma 4 Norte 0 916.3 0.1 90
2020-03-14 02:00:00 5 2 Noroeste 4 Noroeste 0 916.5 0.2 86
2020-03-14 01:00:00 6.4 2 Noroeste 10 Oeste 0 916.4 0.5 83
2020-03-14 00:00:00 7.5 6 Oeste 10 Oeste 0 916.2 0.7 80
2020-03-13 23:00:00 8.7 7 Oeste 9 Oeste 0 916.3 1.6 77
2020-03-13 22:00:00 9.7 6 Oeste 9 Oeste 0 915.9 1.7 78
2020-03-13 21:00:00 11.6 5 Sudeste 13 Sur 0 915.5 1.8 72
2020-03-13 20:00:00 12.7 5 Este 15 Sudeste 0 914.7 1.3 68
2020-03-13 19:00:00 14.9 5 Este 28 Sur 0 914.2 0.5 60
2020-03-13 18:00:00 17.1 5 Sudeste 24 Este 0 913.7 -0.2 52
2020-03-13 17:00:00 19.5 8 Sudeste 25 Sur 0 913.4 -1.5 45
2020-03-13 16:00:00 20.7 10 Este 27 Sudeste 0 913.7 -1.7 41
2020-03-13 15:00:00 20.9 9 Este 28 Sur 0 913.9 -2.2 41
2020-03-13 14:00:00 20.8 10 Sudeste 28 Sudeste 0 914.9 -1.7 41
2020-03-13 13:00:00 19.5 9 Sudeste 20 Este 0 915.4 -1.3 43
2020-03-13 12:00:00 15.4 10 Sur 20 Sur 0 916.1 -0.5 58
2020-03-13 11:00:00 11.7 4 Oeste 10 Sur 0 916.6 0.4 73
2020-03-13 10:00:00 10.4 4 Oeste 8 Sudoeste 0 916.7 1 77
2020-03-13 09:00:00 8.2 2 Sudoeste 7 Nordeste 0 916.6 1.3 86
2020-03-13 08:00:00 6.2 2 Nordeste 8 Oeste 0 916.2 1 91
2020-03-13 07:00:00 5.7 3 Norte 6 Norte 0 915.7 0.7 92
2020-03-13 06:00:00 6.9 3 Oeste 10 Noroeste 0 915.3 0.1 86
2020-03-13 05:00:00 7.7 4 Noroeste 14 Oeste 0 915.2 -0.1 88
2020-03-13 04:00:00 8.3 4 Oeste 11 Oeste 0 915 -0.7 87
2020-03-13 03:00:00 9.1 5 Oeste 14 Oeste 0 915.2 -0.4 83
2020-03-13 02:00:00 9.3 3 Noroeste 8 Oeste 0 915.3 -0.4 74
2020-03-13 01:00:00 10.3 3 Norte 8 Oeste 0 915.7 0.3 72
2020-03-13 00:00:00 11.2 2 Oeste 7 Oeste 0 915.6 0.6 66
2020-03-12 23:00:00 12.9 0 Calma 8 Oeste 0 915.7 1.1 62
2020-03-12 22:00:00 15.3 3 Noroeste 13 Este 0 915.4 1.2 56
2020-03-12 21:00:00 17.4 4 Este 15 Sur 0 915 1.1 50
2020-03-12 20:00:00 19.6 5 Sudeste 15 Este 0 914.6 0.7 47
2020-03-12 19:00:00 22.9 10 Sur 19 Sur 0 914.2 -0.2 29
2020-03-12 18:00:00 24.6 11 Sudoeste 23 Sur 0 913.9 -1.3 26
2020-03-12 17:00:00 26.5 11 Sudoeste 22 Sur 0 913.9 -2.2 22
2020-03-12 16:00:00 27.6 14 Sudoeste 28 Sudoeste 0 914.4 -2.8 19
2020-03-12 15:00:00 27.5 15 Sudoeste 27 Sudoeste 0 915.2 -2.7 20
2020-03-12 14:00:00 27.2 12 Sur 25 Sur 0 916.1 -2.5 23
2020-03-12 13:00:00 26 10 Sur 16 Sur 0 917.2 -2 27
2020-03-12 12:00:00 21.4 4 Sudeste 9 Sur 0 917.9 -1.5 37
2020-03-12 11:00:00 17.2 5 Este 10 Nordeste 0 918.6 -0.7 49
2020-03-12 10:00:00 12 4 Nordeste 10 Norte 0 919.2 0.1 63
2020-03-12 09:00:00 7.1 5 Oeste 8 Oeste 0 919.4 0.4 79
2020-03-12 08:00:00 4.2 3 Oeste 5 Oeste 0 919.3 -0.2 86
2020-03-12 07:00:00 4.5 3 Norte 9 Oeste 0 919.1 -0.4 86
2020-03-12 06:00:00 4.4 6 Oeste 9 Oeste 0 919 -0.8 85
2020-03-12 05:00:00 5.7 2 Norte 5 Noroeste 0 919.5 -0.7 81
2020-03-12 04:00:00 6.8 3 Norte 7 Norte 0 919.5 -0.7 76
2020-03-12 03:00:00 7.7 2 Norte 5 Norte 0 919.8 -0.6 74
2020-03-12 02:00:00 8.5 2 Oeste 4 Oeste 0 920.2 -0.2 72
2020-03-12 01:00:00 9.5 4 Oeste 5 Oeste 0 920.2 -0.1 68
2020-03-12 00:00:00 11 2 Noroeste 5 Oeste 0 920.4 0.4 64
2020-03-11 23:00:00 12.3 6 Oeste 8 Oeste 0 920.4 0.8 59
2020-03-11 22:00:00 14 6 Oeste 10 Oeste 0 920.3 1.3 53
2020-03-11 21:00:00 17.1 0 Calma 13 Sudeste 0 920 1.5 48
2020-03-11 20:00:00 19.1 5 Sudeste 12 Sudeste 0 919.6 1.2 41
2020-03-11 19:00:00 22 5 Norte 14 Norte 0 919 0.5 31
2020-03-11 18:00:00 25 7 Norte 22 Noroeste 0 918.5 -0.5 24
2020-03-11 17:00:00 26.3 8 Noroeste 22 Nordeste 0 918.4 -1.4 21
2020-03-11 16:00:00 26 11 Norte 22 Norte 0 918.5 -2.4 23
2020-03-11 15:00:00 25.9 9 Nordeste 18 Norte 0 919 -2.7 24
2020-03-11 14:00:00 24.7 5 Noroeste 15 Noroeste 0 919.8 -2.5 27
2020-03-11 13:00:00 22.3 5 Norte 15 Norte 0 920.9 -1.6 31
2020-03-11 12:00:00 19.4 6 Nordeste 13 Norte 0 921.7 -0.8 37
2020-03-11 11:00:00 15.3 4 Sudoeste 7 Sudoeste 0 922.3 0.2 50
2020-03-11 10:00:00 10.2 4 Oeste 7 Oeste 0 922.5 0.8 67
2020-03-11 09:00:00 5.2 3 Sudoeste 6 Noroeste 0 922.5 0.9 83
2020-03-11 08:00:00 2.4 0 Calma 6 Oeste 0 922.1 0.7 88
2020-03-11 07:00:00 2.5 3 Noroeste 5 Norte 0 921.7 0.1 86
2020-03-11 06:00:00 2.9 2 Nordeste 9 Norte 0 921.6 -0.3 85
2020-03-11 05:00:00 3.9 3 Norte 6 Norte 0 921.4 -0.9 84
2020-03-11 04:00:00 4.9 3 Norte 6 Sudoeste 0 921.6 -0.3 82
2020-03-11 03:00:00 5.9 2 Noroeste 7 Oeste 0 921.9 0.2 78
2020-03-11 02:00:00 6.4 3 Norte 7 Sudeste 0 922.3 0.4 75
2020-03-11 01:00:00 8 3 Este 8 Sudeste 0 921.9 0.2 72
2020-03-11 00:00:00 9.1 3 Noroeste 10 Norte 0 921.7 0.5 67
2020-03-10 23:00:00 9.8 3 Norte 6 Noroeste 0 921.9 0.9 65
2020-03-10 22:00:00 11.1 2 Noroeste 7 Noroeste 0 921.7 1.1 60
2020-03-10 21:00:00 13.3 4 Norte 10 Norte 0 921.2 1 54
2020-03-10 20:00:00 15.8 4 Norte 10 Oeste 0 921 0.8 46
2020-03-10 19:00:00 19.2 6 Norte 13 Norte 0 920.6 -0.1 37
2020-03-10 18:00:00 21.2 7 Norte 15 Noroeste 0 920.2 -0.8 31
2020-03-10 17:00:00 22 6 Noroeste 13 Norte 0 920.2 -1.7 29
2020-03-10 16:00:00 21.4 8 Noroeste 17 Norte 0 920.7 -1.9 30
2020-03-10 15:00:00 20.9 9 Norte 21 Noroeste 0 921 -2 29
2020-03-10 14:00:00 19.3 10 Noroeste 23 Noroeste 0 921.9 -1.3 33
2020-03-10 13:00:00 17.6 8 Norte 18 Noroeste 0 922.6 -0.6 34
2020-03-10 12:00:00 15 6 Noroeste -- -- 0 923 -0.2 40
2020-03-10 11:00:00 -- -- -- -- -- 0 923.2 0.6 --
2020-03-10 10:00:00 5.7 2 Sur 5 Oeste 0 923.2 1.1 71
2020-03-10 09:00:00 1.6 2 Oeste 5 Oeste 0 923.2 1.4 83
2020-03-10 08:00:00 0.1 2 Norte 5 Norte 0 922.6 1.3 85
2020-03-10 07:00:00 0.5 2 Norte 5 Este 0 922.1 0.9 83
2020-03-10 06:00:00 0.9 4 Este 9 Sudeste 0 921.8 0.5 83
2020-03-10 05:00:00 1.4 3 Sudeste 6 Sudeste 0 921.3 0.3 83
2020-03-10 04:00:00 2.2 0 Calma 5 Sudeste 0 921.2 0.2 80
2020-03-10 03:00:00 2.8 3 Este 6 Sur 0 921.3 0.3 79
2020-03-10 02:00:00 3.9 4 Oeste 13 Oeste 0 921 -0.1 74
2020-03-10 01:00:00 4.3 9 Oeste 15 Oeste 0 921 0.4 76
2020-03-10 00:00:00 5.6 3 Norte 15 Noroeste 0 921 0.9 66
2020-03-09 23:00:00 5.9 5 Noroeste 12 Oeste 0 921.1 1.9 67
2020-03-09 22:00:00 6.3 5 Oeste 16 Noroeste 0 920.6 1.8 68
2020-03-09 21:00:00 7.2 7 Noroeste 14 Noroeste 0 920.1 1.8 64
2020-03-09 20:00:00 8.8 6 Noroeste 16 Norte 0 919.2 0.6 55
2020-03-09 19:00:00 11.2 10 Norte 29 Nordeste 0 918.8 0.3 45
2020-03-09 18:00:00 13.1 14 Noroeste 38 Noroeste 0 918.3 -0.7 37
2020-03-09 17:00:00 14.2 18 Noroeste 45 Noroeste 0 918.6 -1 34
2020-03-09 16:00:00 14.3 19 Norte 43 Noroeste 0 918.5 -1.8 36
2020-03-09 15:00:00 13.9 17 Norte 40 Norte 0 919 -1.7 36
2020-03-09 14:00:00 13.5 19 Noroeste 41 Noroeste 0 919.6 -1 34
2020-03-09 13:00:00 12.9 14 Norte 39 Noroeste 0 920.3 -0.1 41
2020-03-09 12:00:00 11.1 17 Norte 38 Noroeste 0 920.7 0.3 47
2020-03-09 11:00:00 9.8 19 Noroeste 39 Norte 0 920.6 0.7 55
2020-03-09 10:00:00 8.1 14 Noroeste 30 Norte 0 920.4 1.2 68
2020-03-09 09:00:00 7.5 13 Norte 28 Norte 0 920.4 1.2 70
2020-03-09 08:00:00 6.7 5 Norte 13 Nordeste 0 919.9 1 73
2020-03-09 07:00:00 5.5 4 Noroeste 12 Norte 0 919.2 0.2 79
2020-03-09 06:00:00 3.7 4 Noroeste 10 Noroeste 0 919.2 0.1 82
2020-03-09 05:00:00 4.2 5 Norte 13 Norte 0 918.9 -0.7 80
2020-03-09 04:00:00 4.6 6 Norte 12 Norte 0 919 -0.6 78
2020-03-09 03:00:00 4.7 3 Oeste 17 Norte 0 919.1 -0.2 70
2020-03-09 02:00:00 4.9 7 Norte 17 Norte 0 919.6 0.3 68
2020-03-09 01:00:00 5.9 4 Oeste 10 Noroeste 0 919.6 0.6 61
2020-03-09 00:00:00 6.7 3 Nordeste 5 Nordeste 0 919.3 0.4 57
2020-03-08 23:00:00 8.3 5 Norte 13 Noroeste 0 919.3 1.1 53
2020-03-08 22:00:00 10.5 6 Noroeste 13 Noroeste 0 919 1 46
2020-03-08 21:00:00 11.9 7 Norte 13 Noroeste 0 918.9 1.4 43
2020-03-08 20:00:00 13.6 7 Norte 17 Norte 0 918.2 1 36
2020-03-08 19:00:00 15.2 6 Norte 21 Noroeste 0 918 0.5 29
2020-03-08 18:00:00 16.7 10 Norte 27 Noroeste 0 917.5 -0.4 26
2020-03-08 17:00:00 19.2 12 Norte 27 Norte 0 917.2 -1.4 16
2020-03-08 16:00:00 18.2 10 Norte 27 Noroeste 0 917.5 -2.5 19
2020-03-08 15:00:00 18.1 9 Noroeste 21 Norte 0 917.9 -2.6 25
2020-03-08 14:00:00 16.7 8 Norte 19 Oeste 0 918.6 -2.3 33
2020-03-08 13:00:00 14.9 12 Oeste 20 Oeste 0 920 -1 37
2020-03-08 12:00:00 12.8 8 Norte 19 Noroeste 0 920.5 -0.6 44
2020-03-08 11:00:00 9 3 Sur 9 Sudoeste 0 920.9 -0.1 66
2020-03-08 10:00:00 4.5 3 Sur 9 Nordeste 0 921 0 78
2020-03-08 09:00:00 0.1 3 Norte 8 Oeste 0 921.1 0.4 91
2020-03-08 08:00:00 -2.8 5 Oeste 7 Norte 0 921 0.7 92
2020-03-08 07:00:00 -2 2 Norte 9 Oeste 0 921 0.9 92
2020-03-08 06:00:00 -1.8 2 Sudoeste 6 Noroeste 0 920.7 0.2 92
2020-03-08 05:00:00 -1 4 Norte 6 Norte 0 920.3 -0.8 92
2020-03-08 04:00:00 0.4 2 Nordeste 4 Nordeste 0 920.1 -1.3 92
2020-03-08 03:00:00 1.7 2 Noroeste 8 Oeste 0 920.5 -0.8 87
2020-03-08 02:00:00 2.4 3 Oeste 9 Oeste 0 921.1 -0.5 87
2020-03-08 01:00:00 3.3 4 Norte 10 Noroeste 0 921.4 0.2 84
2020-03-08 00:00:00 3.9 4 Nordeste 12 Noroeste 0 921.3 0.6 81
2020-03-07 23:00:00 4.8 5 Oeste 9 Oeste 0 921.6 1.4 78
2020-03-07 22:00:00 6 4 Nordeste 12 Nordeste 0 921.2 1.6 73
2020-03-07 21:00:00 6.7 5 Norte 10 Norte 0 920.7 1.9 69
2020-03-07 20:00:00 8.1 3 Norte 21 Nordeste 0 920.2 1.6 62
2020-03-07 19:00:00 9.8 10 Norte 29 Norte 0 919.6 1.2 56
2020-03-07 18:00:00 11.5 12 Norte 39 Norte 0 918.8 0.3 49
2020-03-07 17:00:00 12.8 14 Norte 47 Noroeste 0 918.6 -0.3 46
2020-03-07 16:00:00 12.1 18 Noroeste 42 Noroeste 0 918.4 -0.8 49
2020-03-07 15:00:00 12.1 20 Noroeste 51 Norte 0 918.5 -0.5 47
2020-03-07 14:00:00 11.7 19 Noroeste 48 Noroeste 0 918.9 -0.1 49
2020-03-07 13:00:00 10.3 21 Noroeste 49 Noroeste 0 919.2 0.5 52
2020-03-07 12:00:00 9.2 22 Norte 49 Noroeste 0 919 0.5 56
2020-03-07 11:00:00 8 14 Norte 42 Noroeste 0 919 1.1 61
2020-03-07 10:00:00 5.9 14 Norte 38 Noroeste 0 918.7 1.2 65
2020-03-07 09:00:00 4.4 14 Norte 32 Noroeste 0 918.5 1.2 64
2020-03-07 08:00:00 2.8 9 Norte 30 Noroeste 0 917.9 1 66
2020-03-07 07:00:00 2.4 11 Noroeste 28 Noroeste 0 917.5 0.5 66
2020-03-07 06:00:00 2.9 10 Noroeste 27 Noroeste 0 917.3 0.1 66
2020-03-07 05:00:00 3.7 13 Noroeste 30 Norte 0 916.9 -0.1 66
2020-03-07 04:00:00 3.1 8 Noroeste 27 Norte 0 917 0.1 67
2020-03-07 03:00:00 3.3 14 Noroeste 37 Norte 0 917.2 0.3 67
2020-03-07 02:00:00 2.3 10 Noroeste 29 Norte 0 917 0.2 66
2020-03-07 01:00:00 2.5 12 Noroeste 39 Noroeste 0 916.9 0.7 64
2020-03-07 00:00:00 3.1 18 Noroeste 38 Norte 0 916.9 1.7 63
2020-03-06 23:00:00 3.8 12 Noroeste 27 Noroeste 0 916.8 2.3 61
2020-03-06 22:00:00 4.6 14 Noroeste 39 Noroeste 0 916.2 2.6 54
2020-03-06 21:00:00 5.5 20 Noroeste 41 Norte 0 915.2 2.6 47
2020-03-06 20:00:00 6.1 16 Noroeste 44 Norte 0 914.5 2.6 45
2020-03-06 19:00:00 6.6 13 Noroeste 58 Noroeste 0 913.6 2.1 44
2020-03-06 18:00:00 7.7 27 Noroeste 59 Noroeste 0 912.6 0.4 36
2020-03-06 17:00:00 6.2 18 Norte 58 Noroeste 0 911.9 0.7 57
2020-03-06 16:00:00 7.3 20 Noroeste 44 Noroeste 0 911.5 0.9 55
2020-03-06 15:00:00 3.7 18 Noroeste 46 Norte 0.6 912.2 2.1 78
2020-03-06 14:00:00 9.1 28 Noroeste 58 Noroeste 0 911.2 1.4 51
2020-03-06 13:00:00 9.6 28 Noroeste 55 Noroeste 0 910.6 1.5 36
2020-03-06 12:00:00 8.7 26 Noroeste 54 Noroeste 0 910.1 1 39
2020-03-06 11:00:00 8.1 27 Noroeste 56 Noroeste 0 909.8 1 43
2020-03-06 10:00:00 7.7 28 Noroeste 53 Noroeste 0 909.1 0.4 45
2020-03-06 09:00:00 5.9 11 Oeste 31 Noroeste 0 909.1 0.1 66
2020-03-06 08:00:00 2.9 2 Nordeste 9 Noroeste 0 908.8 -0.2 73
2020-03-06 07:00:00 4.2 3 Sur 8 Nordeste 0 908.7 0 68
2020-03-06 06:00:00 4.4 2 Nordeste 7 Este 0 909 -0.3 68
2020-03-06 05:00:00 5.5 4 Noroeste 13 Norte 0 909 -0.3 63
2020-03-06 04:00:00 6.2 4 Noroeste 28 Noroeste 0 908.7 -0.8 64
2020-03-06 03:00:00 6.6 12 Noroeste 28 Noroeste 0 909.3 -0.2 62
2020-03-06 02:00:00 7 14 Noroeste 29 Norte 0 909.3 -0.5 64
2020-03-06 01:00:00 8 11 Noroeste 31 Noroeste 0 909.5 0.5 60
2020-03-06 00:00:00 7.8 12 Noroeste 36 Oeste 0 909.5 0.9 62
2020-03-05 23:00:00 7.8 13 Noroeste 33 Norte 0 909.8 1.2 66
2020-03-05 22:00:00 8.1 4 Nordeste 15 Norte 0 909 0.8 57
2020-03-05 21:00:00 8.4 6 Nordeste 11 Oeste 0 908.6 1.3 57
2020-03-05 20:00:00 10.1 5 Noroeste 25 Noroeste 0 908.6 2.1 51
2020-03-05 19:00:00 11.6 14 Noroeste 33 Noroeste 0 908.2 1.7 45
2020-03-05 18:00:00 13.3 18 Noroeste 41 Noroeste 0 907.3 1.3 38
2020-03-05 17:00:00 14.3 18 Noroeste 44 Noroeste 0 906.5 0.3 38
2020-03-05 16:00:00 14 17 Noroeste 42 Oeste 0 906.5 -0.6 40
2020-03-05 15:00:00 14.6 19 Oeste 42 Oeste 0 906 -1.2 52
2020-03-05 14:00:00 14.3 21 Oeste 48 Oeste 0 906.2 -1.4 53
2020-03-05 13:00:00 13.7 15 Sudoeste 42 Oeste 0 907.1 -1.7 57
2020-03-05 12:00:00 14.3 20 Oeste 36 Oeste 0 907.2 -1.1 57
2020-03-05 11:00:00 13.4 21 Sudoeste 33 Oeste 0 907.6 -1.1 61
2020-03-05 10:00:00 11.3 13 Oeste 26 Oeste 0 908.8 -0.7 70
2020-03-05 09:00:00 4.8 4 Nordeste 7 Este 0 908.3 -1.9 91
2020-03-05 08:00:00 2.8 4 Norte 5 Nordeste 0 908.7 -1.9 93
2020-03-05 07:00:00 2.3 2 Oeste 4 Oeste 0 909.5 -1.8 93
2020-03-05 06:00:00 2.3 3 Norte 5 Oeste 0 910.2 -2.4 92
2020-03-05 05:00:00 2.7 0 Calma 6 Oeste 0 910.6 -3 91
2020-03-05 04:00:00 3.2 2 Noroeste 6 Sudeste 0 911.3 -2.8 89
2020-03-05 03:00:00 4 2 Este 5 Sudoeste 0 912.6 -1.6 89
2020-03-05 02:00:00 4.5 3 Noroeste 6 Sudoeste 0 913.6 -1.3 85
2020-03-05 01:00:00 5.8 3 Oeste 9 Oeste 0 914.1 -1 82
2020-03-05 00:00:00 7.4 0 Calma 5 Este 0 914.2 -0.5 79
2020-03-04 23:00:00 9 2 Oeste 6 Sudoeste 0 914.9 0.2 74
2020-03-04 22:00:00 9.9 6 Norte 11 Norte 0 915.1 0.8 69
2020-03-04 21:00:00 11.3 5 Oeste 18 Oeste 0 914.7 0.7 63
2020-03-04 20:00:00 12.2 7 Oeste 14 Oeste 0 914.7 0.9 59
2020-03-04 19:00:00 14.5 4 Oeste 23 Oeste 0 914.3 0.5 51
2020-03-04 18:00:00 16.7 10 Noroeste 25 Noroeste 0 914 -0.5 45
2020-03-04 17:00:00 17.3 13 Noroeste 24 Norte 0 913.8 -0.8 45
2020-03-04 16:00:00 17.6 12 Noroeste 24 Noroeste 0 913.8 -1.8 43
2020-03-04 15:00:00 17.5 14 Noroeste 31 Sudoeste 0 914.5 -1.4 44
2020-03-04 14:00:00 17.3 16 Noroeste 31 Oeste 0 914.6 -1.6 45
2020-03-04 13:00:00 17.2 14 Noroeste 29 Noroeste 0 915.6 -0.8 46
2020-03-04 12:00:00 17.3 13 Noroeste 26 Sudoeste 0 915.9 -0.4 49
2020-03-04 11:00:00 13.1 3 Sudoeste 8 Sudoeste 0 916.2 0.7 67
2020-03-04 10:00:00 8.2 4 Oeste 8 Oeste 0 916.4 1.3 80
2020-03-04 09:00:00 5.3 2 Sur 7 Norte 0 916.3 1.4 90
2020-03-04 08:00:00 4.1 4 Norte 10 Norte 0 915.5 0.8 91
2020-03-04 07:00:00 4.2 3 Nordeste 5 Norte 0 915.1 0.4 90
2020-03-04 06:00:00 4.5 2 Norte 6 Sudoeste 0 914.9 -0.4 89
2020-03-04 05:00:00 3.7 0 Calma 6 Noroeste 0 914.7 -0.5 89
2020-03-04 04:00:00 3.7 2 Oeste 5 Este 0 914.7 0 88
2020-03-04 03:00:00 4.9 2 Este 6 Sudoeste 0 915.3 1.1 86
2020-03-04 02:00:00 6.5 3 Oeste 9 Nordeste 0 915.2 1.7 78
2020-03-04 01:00:00 7.7 3 Nordeste 10 Nordeste 0 914.7 1.9 75
2020-03-04 00:00:00 8.7 4 Nordeste 18 Noroeste 0 914.2 2.6 71